sensor_id;sensor_type;location;lat;lon;timestamp;temperature;humidity
9177;DHT22;4623;54.310;10.112;2022-09-09T00:01:08;15.80;99.90
9177;DHT22;4623;54.310;10.112;2022-09-09T00:03:44;15.70;99.90
9177;DHT22;4623;54.310;10.112;2022-09-09T00:06:43;15.80;99.90
9177;DHT22;4623;54.310;10.112;2022-09-09T00:09:14;15.80;99.90
9177;DHT22;4623;54.310;10.112;2022-09-09T00:11:58;15.90;99.90
9177;DHT22;4623;54.310;10.112;2022-09-09T00:20:13;15.90;99.90
9177;DHT22;4623;54.310;10.112;2022-09-09T00:22:46;15.90;99.90
9177;DHT22;4623;54.310;10.112;2022-09-09T00:25:28;15.90;99.90
9177;DHT22;4623;54.310;10.112;2022-09-09T00:27:56;15.90;99.90
9177;DHT22;4623;54.310;10.112;2022-09-09T00:30:24;15.90;99.90
9177;DHT22;4623;54.310;10.112;2022-09-09T00:32:55;15.90;99.90
9177;DHT22;4623;54.310;10.112;2022-09-09T00:35:34;15.90;99.90
9177;DHT22;4623;54.310;10.112;2022-09-09T00:40:55;15.80;99.90
9177;DHT22;4623;54.310;10.112;2022-09-09T00:43:32;15.80;99.90
9177;DHT22;4623;54.310;10.112;2022-09-09T00:54:32;15.80;99.90
9177;DHT22;4623;54.310;10.112;2022-09-09T01:05:33;15.70;99.90
9177;DHT22;4623;54.310;10.112;2022-09-09T01:08:01;15.70;99.90
9177;DHT22;4623;54.310;10.112;2022-09-09T01:10:49;15.70;99.90
9177;DHT22;4623;54.310;10.112;2022-09-09T01:13:28;15.70;99.90
9177;DHT22;4623;54.310;10.112;2022-09-09T01:15:58;15.80;99.90
9177;DHT22;4623;54.310;10.112;2022-09-09T01:18:29;15.80;99.90
9177;DHT22;4623;54.310;10.112;2022-09-09T01:24:08;15.80;99.90
9177;DHT22;4623;54.310;10.112;2022-09-09T01:26:42;15.80;99.90
9177;DHT22;4623;54.310;10.112;2022-09-09T01:29:11;15.80;99.90
9177;DHT22;4623;54.310;10.112;2022-09-09T01:31:40;15.80;99.90
9177;DHT22;4623;54.310;10.112;2022-09-09T01:34:14;15.80;99.90
9177;DHT22;4623;54.310;10.112;2022-09-09T01:36:49;15.80;99.90
9177;DHT22;4623;54.310;10.112;2022-09-09T01:39:16;15.80;99.90
9177;DHT22;4623;54.310;10.112;2022-09-09T01:41:42;15.80;99.90
9177;DHT22;4623;54.310;10.112;2022-09-09T01:44:08;15.80;99.90
9177;DHT22;4623;54.310;10.112;2022-09-09T01:46:35;15.80;99.90
9177;DHT22;4623;54.310;10.112;2022-09-09T01:49:02;15.80;99.90
9177;DHT22;4623;54.310;10.112;2022-09-09T01:51:29;15.90;99.90
9177;DHT22;4623;54.310;10.112;2022-09-09T01:53:55;15.80;99.90
9177;DHT22;4623;54.310;10.112;2022-09-09T02:07:41;15.80;99.90
9177;DHT22;4623;54.310;10.112;2022-09-09T02:12:47;15.70;99.90
9177;DHT22;4623;54.310;10.112;2022-09-09T02:15:34;15.80;99.90
9177;DHT22;4623;54.310;10.112;2022-09-09T02:18:04;15.70;99.90
9177;DHT22;4623;54.310;10.112;2022-09-09T02:20:36;15.70;99.90
9177;DHT22;4623;54.310;10.112;2022-09-09T02:23:04;15.70;99.90
9177;DHT22;4623;54.310;10.112;2022-09-09T02:25:30;15.70;99.90
9177;DHT22;4623;54.310;10.112;2022-09-09T02:27:59;15.80;99.90
9177;DHT22;4623;54.310;10.112;2022-09-09T02:30:24;15.80;99.90
9177;DHT22;4623;54.310;10.112;2022-09-09T02:32:54;15.80;99.90
9177;DHT22;4623;54.310;10.112;2022-09-09T02:35:23;15.80;99.90
9177;DHT22;4623;54.310;10.112;2022-09-09T02:37:52;15.80;99.90
9177;DHT22;4623;54.310;10.112;2022-09-09T02:40:19;15.80;99.90
9177;DHT22;4623;54.310;10.112;2022-09-09T02:42:47;15.80;99.90
9177;DHT22;4623;54.310;10.112;2022-09-09T02:45:19;15.80;99.90
9177;DHT22;4623;54.310;10.112;2022-09-09T02:48:13;15.80;99.90
9177;DHT22;4623;54.310;10.112;2022-09-09T02:51:00;15.80;99.90
9177;DHT22;4623;54.310;10.112;2022-09-09T02:53:57;15.80;99.90
9177;DHT22;4623;54.310;10.112;2022-09-09T02:56:27;15.80;99.90
9177;DHT22;4623;54.310;10.112;2022-09-09T02:58:55;15.70;99.90
9177;DHT22;4623;54.310;10.112;2022-09-09T03:01:21;15.70;99.90
9177;DHT22;4623;54.310;10.112;2022-09-09T03:03:47;15.70;99.90
9177;DHT22;4623;54.310;10.112;2022-09-09T03:06:13;15.70;99.90
9177;DHT22;4623;54.310;10.112;2022-09-09T03:08:40;15.60;99.90
9177;DHT22;4623;54.310;10.112;2022-09-09T03:11:07;15.70;99.90
9177;DHT22;4623;54.310;10.112;2022-09-09T03:13:34;15.70;99.90
9177;DHT22;4623;54.310;10.112;2022-09-09T03:16:00;15.70;99.90
9177;DHT22;4623;54.310;10.112;2022-09-09T03:18:25;15.70;99.90
9177;DHT22;4623;54.310;10.112;2022-09-09T03:20:52;15.70;99.90
9177;DHT22;4623;54.310;10.112;2022-09-09T03:23:19;15.80;99.90
9177;DHT22;4623;54.310;10.112;2022-09-09T03:25:48;15.70;99.90
9177;DHT22;4623;54.310;10.112;2022-09-09T03:28:14;15.70;99.90
9177;DHT22;4623;54.310;10.112;2022-09-09T03:30:40;15.60;99.90
9177;DHT22;4623;54.310;10.112;2022-09-09T03:33:06;15.60;99.90
9177;DHT22;4623;54.310;10.112;2022-09-09T03:35:32;15.50;99.90
9177;DHT22;4623;54.310;10.112;2022-09-09T03:37:57;15.40;99.90
9177;DHT22;4623;54.310;10.112;2022-09-09T03:40:23;15.40;99.90
9177;DHT22;4623;54.310;10.112;2022-09-09T03:42:48;15.40;99.90
9177;DHT22;4623;54.310;10.112;2022-09-09T03:45:14;15.40;99.90
9177;DHT22;4623;54.310;10.112;2022-09-09T03:47:40;15.40;99.90
9177;DHT22;4623;54.310;10.112;2022-09-09T03:50:07;15.50;99.90
9177;DHT22;4623;54.310;10.112;2022-09-09T03:52:38;15.50;99.90
9177;DHT22;4623;54.310;10.112;2022-09-09T03:55:05;15.40;99.90
9177;DHT22;4623;54.310;10.112;2022-09-09T03:57:31;15.40;99.90
9177;DHT22;4623;54.310;10.112;2022-09-09T03:59:57;15.40;99.90
9177;DHT22;4623;54.310;10.112;2022-09-09T04:02:23;15.40;99.90
9177;DHT22;4623;54.310;10.112;2022-09-09T04:04:49;15.30;99.90
9177;DHT22;4623;54.310;10.112;2022-09-09T04:07:14;15.30;99.90
9177;DHT22;4623;54.310;10.112;2022-09-09T04:09:41;15.30;99.90
9177;DHT22;4623;54.310;10.112;2022-09-09T04:12:06;15.30;99.90
9177;DHT22;4623;54.310;10.112;2022-09-09T04:14:32;15.30;99.90
9177;DHT22;4623;54.310;10.112;2022-09-09T04:16:58;15.30;99.90
9177;DHT22;4623;54.310;10.112;2022-09-09T04:19:25;15.30;99.90
9177;DHT22;4623;54.310;10.112;2022-09-09T04:21:51;15.30;99.90
9177;DHT22;4623;54.310;10.112;2022-09-09T04:24:17;15.30;99.90
9177;DHT22;4623;54.310;10.112;2022-09-09T04:26:43;15.40;99.90
9177;DHT22;4623;54.310;10.112;2022-09-09T04:29:08;15.40;99.90
9177;DHT22;4623;54.310;10.112;2022-09-09T04:31:35;15.50;99.90
9177;DHT22;4623;54.310;10.112;2022-09-09T04:34:00;15.40;99.90
9177;DHT22;4623;54.310;10.112;2022-09-09T04:36:31;15.40;99.90
9177;DHT22;4623;54.310;10.112;2022-09-09T04:38:57;15.40;99.90
9177;DHT22;4623;54.310;10.112;2022-09-09T04:41:23;15.40;99.90
9177;DHT22;4623;54.310;10.112;2022-09-09T04:43:49;15.40;99.90
9177;DHT22;4623;54.310;10.112;2022-09-09T04:46:15;15.40;99.90
9177;DHT22;4623;54.310;10.112;2022-09-09T04:48:42;15.40;99.90
9177;DHT22;4623;54.310;10.112;2022-09-09T04:51:12;15.40;99.90
9177;DHT22;4623;54.310;10.112;2022-09-09T04:53:38;15.50;99.90
9177;DHT22;4623;54.310;10.112;2022-09-09T04:56:13;15.40;99.90
9177;DHT22;4623;54.310;10.112;2022-09-09T04:58:40;15.40;99.90
9177;DHT22;4623;54.310;10.112;2022-09-09T05:01:15;15.30;99.90
9177;DHT22;4623;54.310;10.112;2022-09-09T05:03:41;15.30;99.90
9177;DHT22;4623;54.310;10.112;2022-09-09T05:06:12;15.30;99.90
9177;DHT22;4623;54.310;10.112;2022-09-09T05:08:39;15.30;99.90
9177;DHT22;4623;54.310;10.112;2022-09-09T05:11:18;15.30;99.90
9177;DHT22;4623;54.310;10.112;2022-09-09T05:13:45;15.30;99.90
9177;DHT22;4623;54.310;10.112;2022-09-09T05:16:11;15.30;99.90
9177;DHT22;4623;54.310;10.112;2022-09-09T05:18:38;15.30;99.90
9177;DHT22;4623;54.310;10.112;2022-09-09T05:21:04;15.30;99.90
9177;DHT22;4623;54.310;10.112;2022-09-09T05:23:32;15.30;99.90
9177;DHT22;4623;54.310;10.112;2022-09-09T05:25:58;15.40;99.90
9177;DHT22;4623;54.310;10.112;2022-09-09T05:28:25;15.40;99.90
9177;DHT22;4623;54.310;10.112;2022-09-09T05:31:01;15.40;99.90
9177;DHT22;4623;54.310;10.112;2022-09-09T05:33:30;15.40;99.90
9177;DHT22;4623;54.310;10.112;2022-09-09T05:36:15;15.50;99.90
9177;DHT22;4623;54.310;10.112;2022-09-09T05:38:42;15.50;99.90
9177;DHT22;4623;54.310;10.112;2022-09-09T05:41:09;15.50;99.90
9177;DHT22;4623;54.310;10.112;2022-09-09T05:43:36;15.50;99.90
9177;DHT22;4623;54.310;10.112;2022-09-09T05:46:10;15.50;99.90
9177;DHT22;4623;54.310;10.112;2022-09-09T05:48:41;15.40;99.90
9177;DHT22;4623;54.310;10.112;2022-09-09T05:51:09;15.40;99.90
9177;DHT22;4623;54.310;10.112;2022-09-09T05:53:36;15.40;99.90
9177;DHT22;4623;54.310;10.112;2022-09-09T05:56:09;15.50;99.90
9177;DHT22;4623;54.310;10.112;2022-09-09T05:58:39;15.50;99.90
9177;DHT22;4623;54.310;10.112;2022-09-09T06:01:17;15.50;99.90
9177;DHT22;4623;54.310;10.112;2022-09-09T06:03:45;15.50;99.90
9177;DHT22;4623;54.310;10.112;2022-09-09T06:06:13;15.50;99.90
9177;DHT22;4623;54.310;10.112;2022-09-09T06:08:41;15.50;99.90
9177;DHT22;4623;54.310;10.112;2022-09-09T06:11:16;15.50;99.90
9177;DHT22;4623;54.310;10.112;2022-09-09T06:13:42;15.50;99.90
9177;DHT22;4623;54.310;10.112;2022-09-09T06:16:10;15.50;99.90
9177;DHT22;4623;54.310;10.112;2022-09-09T06:18:38;15.50;99.90
9177;DHT22;4623;54.310;10.112;2022-09-09T06:21:06;15.50;99.90
9177;DHT22;4623;54.310;10.112;2022-09-09T06:23:35;15.60;99.90
9177;DHT22;4623;54.310;10.112;2022-09-09T06:26:11;15.60;99.90
9177;DHT22;4623;54.310;10.112;2022-09-09T06:28:37;15.60;99.90
9177;DHT22;4623;54.310;10.112;2022-09-09T06:31:05;15.60;99.90
9177;DHT22;4623;54.310;10.112;2022-09-09T06:33:34;15.60;99.90
9177;DHT22;4623;54.310;10.112;2022-09-09T06:36:01;15.60;99.90
9177;DHT22;4623;54.310;10.112;2022-09-09T06:38:27;15.60;99.90
9177;DHT22;4623;54.310;10.112;2022-09-09T06:40:57;15.50;99.90
9177;DHT22;4623;54.310;10.112;2022-09-09T06:43:27;15.50;99.90
9177;DHT22;4623;54.310;10.112;2022-09-09T06:45:57;15.50;99.90
9177;DHT22;4623;54.310;10.112;2022-09-09T06:48:23;15.50;99.90
9177;DHT22;4623;54.310;10.112;2022-09-09T06:50:59;15.50;99.90
9177;DHT22;4623;54.310;10.112;2022-09-09T06:53:25;15.50;99.90
9177;DHT22;4623;54.310;10.112;2022-09-09T06:55:51;15.50;99.90
9177;DHT22;4623;54.310;10.112;2022-09-09T06:58:17;15.50;99.90
9177;DHT22;4623;54.310;10.112;2022-09-09T07:00:42;15.60;99.90
9177;DHT22;4623;54.310;10.112;2022-09-09T07:03:10;15.60;99.90
9177;DHT22;4623;54.310;10.112;2022-09-09T07:05:36;15.50;99.90
9177;DHT22;4623;54.310;10.112;2022-09-09T07:08:01;15.60;99.90
9177;DHT22;4623;54.310;10.112;2022-09-09T07:10:27;15.80;99.90
9177;DHT22;4623;54.310;10.112;2022-09-09T07:12:53;16.00;99.90
9177;DHT22;4623;54.310;10.112;2022-09-09T07:15:20;16.10;99.90
9177;DHT22;4623;54.310;10.112;2022-09-09T07:17:46;16.20;99.90
9177;DHT22;4623;54.310;10.112;2022-09-09T07:20:13;16.30;99.90
9177;DHT22;4623;54.310;10.112;2022-09-09T07:22:40;16.40;99.90
9177;DHT22;4623;54.310;10.112;2022-09-09T07:25:06;16.50;99.90
9177;DHT22;4623;54.310;10.112;2022-09-09T07:27:32;16.60;99.90
9177;DHT22;4623;54.310;10.112;2022-09-09T07:29:58;16.60;99.90
9177;DHT22;4623;54.310;10.112;2022-09-09T07:32:23;16.70;99.90
9177;DHT22;4623;54.310;10.112;2022-09-09T07:34:51;16.60;99.90
9177;DHT22;4623;54.310;10.112;2022-09-09T07:37:16;16.60;99.90
9177;DHT22;4623;54.310;10.112;2022-09-09T07:39:43;16.70;99.90
9177;DHT22;4623;54.310;10.112;2022-09-09T07:42:09;16.70;99.90
9177;DHT22;4623;54.310;10.112;2022-09-09T07:44:37;16.80;99.90
9177;DHT22;4623;54.310;10.112;2022-09-09T07:47:05;17.00;99.90
9177;DHT22;4623;54.310;10.112;2022-09-09T07:49:31;17.00;99.90
9177;DHT22;4623;54.310;10.112;2022-09-09T07:51:57;17.10;99.90
9177;DHT22;4623;54.310;10.112;2022-09-09T07:54:23;17.10;99.90
9177;DHT22;4623;54.310;10.112;2022-09-09T07:56:51;17.10;99.90
9177;DHT22;4623;54.310;10.112;2022-09-09T07:59:17;17.10;99.90
9177;DHT22;4623;54.310;10.112;2022-09-09T08:01:46;17.10;99.90
9177;DHT22;4623;54.310;10.112;2022-09-09T08:04:17;17.20;99.90
9177;DHT22;4623;54.310;10.112;2022-09-09T08:06:57;17.40;99.90
9177;DHT22;4623;54.310;10.112;2022-09-09T08:09:24;17.40;99.90
9177;DHT22;4623;54.310;10.112;2022-09-09T08:11:52;17.40;99.90
9177;DHT22;4623;54.310;10.112;2022-09-09T08:14:18;17.40;99.90
9177;DHT22;4623;54.310;10.112;2022-09-09T08:16:46;17.50;99.90
9177;DHT22;4623;54.310;10.112;2022-09-09T08:19:12;17.60;99.90
9177;DHT22;4623;54.310;10.112;2022-09-09T08:21:39;17.70;99.90
9177;DHT22;4623;54.310;10.112;2022-09-09T08:24:06;17.90;99.90
9177;DHT22;4623;54.310;10.112;2022-09-09T08:26:37;18.10;99.90
9177;DHT22;4623;54.310;10.112;2022-09-09T08:29:05;18.30;99.90
9177;DHT22;4623;54.310;10.112;2022-09-09T08:34:25;18.50;99.90
9177;DHT22;4623;54.310;10.112;2022-09-09T08:36:52;18.70;99.90
9177;DHT22;4623;54.310;10.112;2022-09-09T08:39:19;18.70;99.90
9177;DHT22;4623;54.310;10.112;2022-09-09T08:50:28;18.80;99.90
9177;DHT22;4623;54.310;10.112;2022-09-09T08:52:56;18.80;99.90
9177;DHT22;4623;54.310;10.112;2022-09-09T08:55:50;18.70;99.90
9177;DHT22;4623;54.310;10.112;2022-09-09T08:58:18;18.70;99.90
9177;DHT22;4623;54.310;10.112;2022-09-09T09:12:18;18.30;99.90
9177;DHT22;4623;54.310;10.112;2022-09-09T09:14:46;18.30;99.90
9177;DHT22;4623;54.310;10.112;2022-09-09T09:17:16;18.40;99.90
9177;DHT22;4623;54.310;10.112;2022-09-09T09:19:43;18.60;99.90
9177;DHT22;4623;54.310;10.112;2022-09-09T09:24:52;19.90;99.90
9177;DHT22;4623;54.310;10.112;2022-09-09T09:30:18;20.40;99.90
9177;DHT22;4623;54.310;10.112;2022-09-09T09:32:53;20.90;99.90
9177;DHT22;4623;54.310;10.112;2022-09-09T09:35:20;22.00;99.90
9177;DHT22;4623;54.310;10.112;2022-09-09T09:37:45;22.60;99.90
9177;DHT22;4623;54.310;10.112;2022-09-09T09:40:18;22.50;99.90
9177;DHT22;4623;54.310;10.112;2022-09-09T09:42:54;22.70;99.90
9177;DHT22;4623;54.310;10.112;2022-09-09T09:45:41;22.30;99.90
9177;DHT22;4623;54.310;10.112;2022-09-09T09:48:11;21.80;99.90
9177;DHT22;4623;54.310;10.112;2022-09-09T09:50:50;21.30;99.90
9177;DHT22;4623;54.310;10.112;2022-09-09T09:53:24;21.50;99.90
9177;DHT22;4623;54.310;10.112;2022-09-09T09:55:59;21.80;99.90
9177;DHT22;4623;54.310;10.112;2022-09-09T09:58:30;21.60;99.90
9177;DHT22;4623;54.310;10.112;2022-09-09T10:00:58;21.50;99.90
9177;DHT22;4623;54.310;10.112;2022-09-09T10:03:30;21.70;99.90
9177;DHT22;4623;54.310;10.112;2022-09-09T10:05:56;22.20;99.90
9177;DHT22;4623;54.310;10.112;2022-09-09T10:08:27;22.20;99.90
9177;DHT22;4623;54.310;10.112;2022-09-09T10:11:21;21.90;99.90
9177;DHT22;4623;54.310;10.112;2022-09-09T10:19:31;23.70;99.90
9177;DHT22;4623;54.310;10.112;2022-09-09T10:36:23;26.90;99.90
9177;DHT22;4623;54.310;10.112;2022-09-09T10:39:01;26.70;99.90
9177;DHT22;4623;54.310;10.112;2022-09-09T10:44:03;28.10;99.90
9177;DHT22;4623;54.310;10.112;2022-09-09T10:46:52;28.50;99.90
9177;DHT22;4623;54.310;10.112;2022-09-09T10:55:20;27.80;91.00
9177;DHT22;4623;54.310;10.112;2022-09-09T10:57:51;27.20;92.90
9177;DHT22;4623;54.310;10.112;2022-09-09T11:03:02;28.00;94.00
9177;DHT22;4623;54.310;10.112;2022-09-09T11:05:39;28.10;90.60
9177;DHT22;4623;54.310;10.112;2022-09-09T11:08:14;27.30;92.00
9177;DHT22;4623;54.310;10.112;2022-09-09T11:13:23;25.50;94.00
9177;DHT22;4623;54.310;10.112;2022-09-09T11:15:57;25.30;98.30
9177;DHT22;4623;54.310;10.112;2022-09-09T11:18:25;25.30;97.20
9177;DHT22;4623;54.310;10.112;2022-09-09T11:20:59;25.20;97.90
9177;DHT22;4623;54.310;10.112;2022-09-09T11:23:39;25.50;99.80
9177;DHT22;4623;54.310;10.112;2022-09-09T11:26:07;25.90;96.40
9177;DHT22;4623;54.310;10.112;2022-09-09T11:42:18;27.20;87.10
9177;DHT22;4623;54.310;10.112;2022-09-09T11:44:44;27.70;82.70
9177;DHT22;4623;54.310;10.112;2022-09-09T11:47:27;27.40;85.10
9177;DHT22;4623;54.310;10.112;2022-09-09T11:52:42;27.00;82.10
9177;DHT22;4623;54.310;10.112;2022-09-09T11:55:29;26.00;86.50
9177;DHT22;4623;54.310;10.112;2022-09-09T11:58:18;25.30;90.70
9177;DHT22;4623;54.310;10.112;2022-09-09T12:00:48;25.60;93.70
9177;DHT22;4623;54.310;10.112;2022-09-09T12:06:33;25.00;95.40
9177;DHT22;4623;54.310;10.112;2022-09-09T12:09:11;24.60;95.40
9177;DHT22;4623;54.310;10.112;2022-09-09T12:11:40;24.50;97.60
9177;DHT22;4623;54.310;10.112;2022-09-09T12:17:10;24.00;99.90
9177;DHT22;4623;54.310;10.112;2022-09-09T12:19:42;24.70;99.90
9177;DHT22;4623;54.310;10.112;2022-09-09T12:22:27;25.00;99.20
9177;DHT22;4623;54.310;10.112;2022-09-09T12:28:04;24.70;97.40
9177;DHT22;4623;54.310;10.112;2022-09-09T12:30:36;24.40;98.90
9177;DHT22;4623;54.310;10.112;2022-09-09T12:33:11;24.30;99.90
9177;DHT22;4623;54.310;10.112;2022-09-09T12:35:39;24.20;99.90
9177;DHT22;4623;54.310;10.112;2022-09-09T12:38:06;24.10;99.90
9177;DHT22;4623;54.310;10.112;2022-09-09T12:40:36;23.80;99.90
9177;DHT22;4623;54.310;10.112;2022-09-09T12:43:20;24.40;99.90
9177;DHT22;4623;54.310;10.112;2022-09-09T12:45:47;25.90;95.50
9177;DHT22;4623;54.310;10.112;2022-09-09T12:48:17;26.00;95.50
9177;DHT22;4623;54.310;10.112;2022-09-09T12:50:45;25.70;95.20
9177;DHT22;4623;54.310;10.112;2022-09-09T12:53:36;25.50;96.00
9177;DHT22;4623;54.310;10.112;2022-09-09T12:56:06;25.90;92.20
9177;DHT22;4623;54.310;10.112;2022-09-09T12:58:37;25.90;92.40
9177;DHT22;4623;54.310;10.112;2022-09-09T13:01:05;26.10;94.00
9177;DHT22;4623;54.310;10.112;2022-09-09T13:03:32;26.70;89.40
9177;DHT22;4623;54.310;10.112;2022-09-09T13:06:12;27.40;90.70
9177;DHT22;4623;54.310;10.112;2022-09-09T13:08:39;27.80;79.80
9177;DHT22;4623;54.310;10.112;2022-09-09T13:11:13;28.40;84.90
9177;DHT22;4623;54.310;10.112;2022-09-09T13:13:42;29.10;72.40
9177;DHT22;4623;54.310;10.112;2022-09-09T13:16:37;29.40;76.50
9177;DHT22;4623;54.310;10.112;2022-09-09T13:19:08;29.70;61.20
9177;DHT22;4623;54.310;10.112;2022-09-09T13:21:39;29.60;64.90
9177;DHT22;4623;54.310;10.112;2022-09-09T13:24:07;29.50;65.60
9177;DHT22;4623;54.310;10.112;2022-09-09T13:26:55;29.70;65.40
9177;DHT22;4623;54.310;10.112;2022-09-09T13:29:22;30.20;60.30
9177;DHT22;4623;54.310;10.112;2022-09-09T13:31:48;29.80;64.80
9177;DHT22;4623;54.310;10.112;2022-09-09T13:36:59;30.20;59.20
9177;DHT22;4623;54.310;10.112;2022-09-09T13:39:24;30.60;59.90
9177;DHT22;4623;54.310;10.112;2022-09-09T13:41:50;30.30;62.00
9177;DHT22;4623;54.310;10.112;2022-09-09T13:44:25;30.20;62.20
9177;DHT22;4623;54.310;10.112;2022-09-09T13:47:03;29.30;58.00
9177;DHT22;4623;54.310;10.112;2022-09-09T13:49:30;28.10;59.90
9177;DHT22;4623;54.310;10.112;2022-09-09T13:54:32;26.20;69.10
9177;DHT22;4623;54.310;10.112;2022-09-09T13:56:58;25.80;75.10
9177;DHT22;4623;54.310;10.112;2022-09-09T13:59:24;25.50;82.60
9177;DHT22;4623;54.310;10.112;2022-09-09T14:01:49;25.10;86.00
9177;DHT22;4623;54.310;10.112;2022-09-09T14:04:17;24.70;87.40
9177;DHT22;4623;54.310;10.112;2022-09-09T14:06:43;24.50;92.70
9177;DHT22;4623;54.310;10.112;2022-09-09T14:09:14;24.50;92.90
9177;DHT22;4623;54.310;10.112;2022-09-09T14:11:41;24.60;94.00
9177;DHT22;4623;54.310;10.112;2022-09-09T14:14:07;24.60;94.70
9177;DHT22;4623;54.310;10.112;2022-09-09T14:16:32;24.50;94.00
9177;DHT22;4623;54.310;10.112;2022-09-09T14:18:58;24.50;94.10
9177;DHT22;4623;54.310;10.112;2022-09-09T14:21:25;24.40;95.30
9177;DHT22;4623;54.310;10.112;2022-09-09T14:23:52;24.00;95.30
9177;DHT22;4623;54.310;10.112;2022-09-09T14:26:24;23.70;98.20
9177;DHT22;4623;54.310;10.112;2022-09-09T14:28:50;23.50;99.90
9177;DHT22;4623;54.310;10.112;2022-09-09T14:31:17;23.00;99.90
9177;DHT22;4623;54.310;10.112;2022-09-09T14:33:43;22.60;99.90
9177;DHT22;4623;54.310;10.112;2022-09-09T14:36:11;22.50;99.90
9177;DHT22;4623;54.310;10.112;2022-09-09T14:38:37;22.40;99.90
9177;DHT22;4623;54.310;10.112;2022-09-09T14:41:08;22.30;99.90
9177;DHT22;4623;54.310;10.112;2022-09-09T14:43:34;22.20;99.90
9177;DHT22;4623;54.310;10.112;2022-09-09T14:46:11;22.20;99.90
9177;DHT22;4623;54.310;10.112;2022-09-09T14:48:37;22.00;99.90
9177;DHT22;4623;54.310;10.112;2022-09-09T14:53:32;21.70;99.90
9177;DHT22;4623;54.310;10.112;2022-09-09T14:56:15;21.60;99.90
9177;DHT22;4623;54.310;10.112;2022-09-09T14:58:41;21.40;99.90
9177;DHT22;4623;54.310;10.112;2022-09-09T15:01:13;21.20;99.90
9177;DHT22;4623;54.310;10.112;2022-09-09T15:03:40;20.90;99.90
9177;DHT22;4623;54.310;10.112;2022-09-09T15:06:12;20.80;99.90
9177;DHT22;4623;54.310;10.112;2022-09-09T15:08:40;20.60;99.90
9177;DHT22;4623;54.310;10.112;2022-09-09T15:11:07;20.50;99.90
9177;DHT22;4623;54.310;10.112;2022-09-09T15:13:34;20.50;99.90
9177;DHT22;4623;54.310;10.112;2022-09-09T15:16:14;20.20;99.90
9177;DHT22;4623;54.310;10.112;2022-09-09T15:18:41;20.00;99.90
9177;DHT22;4623;54.310;10.112;2022-09-09T15:21:18;19.70;99.90
9177;DHT22;4623;54.310;10.112;2022-09-09T15:23:48;19.50;99.90
9177;DHT22;4623;54.310;10.112;2022-09-09T15:26:15;19.20;99.90
9177;DHT22;4623;54.310;10.112;2022-09-09T15:28:41;18.20;99.90
9177;DHT22;4623;54.310;10.112;2022-09-09T15:31:14;17.00;99.90
9177;DHT22;4623;54.310;10.112;2022-09-09T15:33:56;16.60;99.90
9177;DHT22;4623;54.310;10.112;2022-09-09T15:36:36;16.60;99.90
9177;DHT22;4623;54.310;10.112;2022-09-09T15:39:04;16.80;99.90
9177;DHT22;4623;54.310;10.112;2022-09-09T15:41:31;16.70;99.90
9177;DHT22;4623;54.310;10.112;2022-09-09T15:43:57;16.60;99.90
9177;DHT22;4623;54.310;10.112;2022-09-09T15:49:18;16.80;99.90
9177;DHT22;4623;54.310;10.112;2022-09-09T15:51:46;16.90;99.90
9177;DHT22;4623;54.310;10.112;2022-09-09T15:54:17;16.80;99.90
9177;DHT22;4623;54.310;10.112;2022-09-09T15:56:44;16.80;99.90
9177;DHT22;4623;54.310;10.112;2022-09-09T15:59:10;16.80;99.90
9177;DHT22;4623;54.310;10.112;2022-09-09T16:01:37;17.00;99.90
9177;DHT22;4623;54.310;10.112;2022-09-09T16:04:04;17.10;99.90
9177;DHT22;4623;54.310;10.112;2022-09-09T16:06:30;17.10;99.90
9177;DHT22;4623;54.310;10.112;2022-09-09T16:08:58;17.20;99.90
9177;DHT22;4623;54.310;10.112;2022-09-09T16:11:31;17.30;99.90
9177;DHT22;4623;54.310;10.112;2022-09-09T16:13:58;17.40;99.90
9177;DHT22;4623;54.310;10.112;2022-09-09T16:16:27;17.50;99.90
9177;DHT22;4623;54.310;10.112;2022-09-09T16:18:58;17.60;99.90
9177;DHT22;4623;54.310;10.112;2022-09-09T16:21:28;17.60;99.90
9177;DHT22;4623;54.310;10.112;2022-09-09T16:23:55;17.60;99.90
9177;DHT22;4623;54.310;10.112;2022-09-09T16:26:22;17.60;99.90
9177;DHT22;4623;54.310;10.112;2022-09-09T16:28:48;17.70;99.90
9177;DHT22;4623;54.310;10.112;2022-09-09T16:31:19;17.70;99.90
9177;DHT22;4623;54.310;10.112;2022-09-09T16:33:46;17.70;99.90
9177;DHT22;4623;54.310;10.112;2022-09-09T16:36:21;17.70;99.90
9177;DHT22;4623;54.310;10.112;2022-09-09T16:38:47;17.60;99.90
9177;DHT22;4623;54.310;10.112;2022-09-09T16:41:14;17.60;99.90
9177;DHT22;4623;54.310;10.112;2022-09-09T16:43:40;17.60;99.90
9177;DHT22;4623;54.310;10.112;2022-09-09T16:46:17;17.60;99.90
9177;DHT22;4623;54.310;10.112;2022-09-09T16:48:44;17.60;99.90
9177;DHT22;4623;54.310;10.112;2022-09-09T16:51:16;17.60;99.90
9177;DHT22;4623;54.310;10.112;2022-09-09T16:53:43;17.60;99.90
9177;DHT22;4623;54.310;10.112;2022-09-09T16:56:11;17.60;99.90
9177;DHT22;4623;54.310;10.112;2022-09-09T16:58:37;17.60;99.90
9177;DHT22;4623;54.310;10.112;2022-09-09T17:01:04;17.60;99.90
9177;DHT22;4623;54.310;10.112;2022-09-09T17:03:30;17.50;99.90
9177;DHT22;4623;54.310;10.112;2022-09-09T17:05:57;17.40;99.90
9177;DHT22;4623;54.310;10.112;2022-09-09T17:08:24;17.40;99.90
9177;DHT22;4623;54.310;10.112;2022-09-09T17:10:49;17.40;99.90
9177;DHT22;4623;54.310;10.112;2022-09-09T17:13:15;17.40;99.90
9177;DHT22;4623;54.310;10.112;2022-09-09T17:15:45;17.30;99.90
9177;DHT22;4623;54.310;10.112;2022-09-09T17:18:12;17.20;99.90
9177;DHT22;4623;54.310;10.112;2022-09-09T17:20:39;17.20;99.90
9177;DHT22;4623;54.310;10.112;2022-09-09T17:23:06;17.10;99.90
9177;DHT22;4623;54.310;10.112;2022-09-09T17:25:33;17.10;99.90
9177;DHT22;4623;54.310;10.112;2022-09-09T17:27:59;17.10;99.90
9177;DHT22;4623;54.310;10.112;2022-09-09T17:30:25;17.00;99.90
9177;DHT22;4623;54.310;10.112;2022-09-09T17:32:51;17.00;99.90
9177;DHT22;4623;54.310;10.112;2022-09-09T17:35:17;17.00;99.90
9177;DHT22;4623;54.310;10.112;2022-09-09T17:37:43;17.00;99.90
9177;DHT22;4623;54.310;10.112;2022-09-09T17:40:10;17.00;99.90
9177;DHT22;4623;54.310;10.112;2022-09-09T17:42:35;17.00;99.90
9177;DHT22;4623;54.310;10.112;2022-09-09T17:45:01;17.10;99.90
9177;DHT22;4623;54.310;10.112;2022-09-09T17:47:27;17.00;99.90
9177;DHT22;4623;54.310;10.112;2022-09-09T17:49:54;17.00;99.90
9177;DHT22;4623;54.310;10.112;2022-09-09T17:52:19;16.90;99.90
9177;DHT22;4623;54.310;10.112;2022-09-09T17:54:45;16.90;99.90
9177;DHT22;4623;54.310;10.112;2022-09-09T17:57:11;16.90;99.90
9177;DHT22;4623;54.310;10.112;2022-09-09T17:59:36;16.90;99.90
9177;DHT22;4623;54.310;10.112;2022-09-09T18:02:02;16.90;99.90
9177;DHT22;4623;54.310;10.112;2022-09-09T18:04:30;16.90;99.90
9177;DHT22;4623;54.310;10.112;2022-09-09T18:06:56;17.00;99.90
9177;DHT22;4623;54.310;10.112;2022-09-09T18:09:24;16.90;99.90
9177;DHT22;4623;54.310;10.112;2022-09-09T18:11:53;16.90;99.90
9177;DHT22;4623;54.310;10.112;2022-09-09T18:14:23;16.90;99.90
9177;DHT22;4623;54.310;10.112;2022-09-09T18:16:50;16.90;99.90
9177;DHT22;4623;54.310;10.112;2022-09-09T18:19:18;16.90;99.90
9177;DHT22;4623;54.310;10.112;2022-09-09T18:21:45;16.90;99.90